Skip Navigation Links
NOAA logo - Click to go to the NOAA homepage
NOAA's National Weather Service
Alaska Aviation Weather Unit
  NWS logo - Click to go to the NWS homepage
Left Navbar Graphic     12 AKDT = 20 GMT

   
NOAA is celebrating 200 years of science, service, and stewardship. Visit the NOAA 200th celebration Web site to learn more.
USA.gov is the U.S. Government's official Web portal to all Federal, state and local government Web resources and services.
Facebook
NWS on Facebook

Important Change Regarding the AAWU Web Presence

 

Over the last several months, the AAWU has been working to navigate its webpages to a nationally supported server. Security, as well as other needs, have necessitated the change.  We have been given an extension for the site changeover while we diligently work at addressing feedback received. As of July 14, 2017, aawu.arh.noaa.gov will be discontinued. The new AAWU web address is weather.gov/aawu. It is now live and will run in-parallel with the old site until it is discontinued on July 14, 2017. Please continue to send any feedback or questions regarding the new webpages to nws.ar.aawu.webauthors@noaa.gov.  Thank you for your patience during this time of transition.
AAWU Home :: Display TAF Add Bookmark
SPECI PAPO 251403Z AUTO 03012KT 10SM -RA FEW009 OVC019 08/07 A2991 RMK
     AO2 P0000=

SPECI PAPO 251454Z AUTO 05010KT 10SM -RA BKN009 BKN016 OVC037 08/07
 A2991 RMK AO2 P0001=

METAR PAPO 251456Z AUTO 05011KT 10SM -RA BKN009 BKN016 OVC037 08/07
 A2991 RMK AO2 SLP127 P0001 60001 T00830072 51002=

SPECI PAPO 251519Z AUTO 05010KT 5SM -RA BR SCT009 BKN028 OVC043
 08/07 A2991 RMK AO2 P0001=

METAR PAPO 251556Z AUTO 04010KT 9SM -RA FEW007 OVC030 08/07 A2991
 RMK AO2 SLP130 P0001 T00780067=

SPECI PAPO 251642Z AUTO 03014KT 10SM FEW008 OVC028 08/07 A2991 RMK AO2
     RAE40 P0001=

METAR PAPO 251656Z AUTO 03014KT 10SM FEW008 BKN028 OVC036 08/07 A2991
     RMK AO2 RAE40 SLP129 P0001 T00830072=

METAR PAPO 251756Z AUTO 03015KT 10SM SCT025 OVC044 09/07 A2992 RMK AO2
     SLP130 60003 T00890067 10089 20078 51004=

METAR PAPO 251856Z AUTO 04017KT 10SM OVC044 09/07 A2992 RMK AO2 SLP131
     T00940072=

METAR PAPO 251956Z AUTO 03015KT 10SM BKN037 OVC044 10/07 A2993 RMK AO2
     SLP133 T01000072=


NOAA's National Weather Service
Alaska Aviation Weather Unit
6930 Sand Lake Road
Anchorage, AK 99502-1845
Disclaimer
Credits
Glossary
Privacy Policy
About Us
Career Opportunities
Contact AAWU Internet Services Site last modified: April, 17th 2012